Time;durP1;ratioP1;P1;durP2;ratioP2;P2;SDS_P1;SDS_P2;PMS_P1;PMS_P2;Temp;Humidity;BMP_temperature;BMP_pressure;BME280_temperature;BME280_humidity;BME280_pressure;Samples;Min_cycle;Max_cycle;Signal;HPM_P1;HPM_P2
2023/10/22 00:03:49;;;;;;;2.10;2.00;;;;;;;;;;10345494;28;20240;-75
2023/10/22 00:08:51;;;;;;;1.85;1.80;;;;;;;;;;10348534;28;20492;-74
2023/10/22 00:13:52;;;;;;;2.28;2.28;;;;;;;;;;10344915;28;20223;-75
2023/10/22 00:18:53;;;;;;;2.00;1.90;;;;;;;;;;10357343;28;20211;-75
2023/10/22 00:23:54;;;;;;;2.67;2.47;;;;;;;;;;10326155;28;20212;-74
2023/10/22 00:28:55;;;;;;;2.17;2.08;;;;;;;;;;10354330;28;20848;-76
2023/10/22 00:33:56;;;;;;;2.45;2.25;;;;;;;;;;10353336;28;20314;-75
2023/10/22 00:38:57;;;;;;;1.98;1.90;;;;;;;;;;10356958;28;20633;-75
2023/10/22 00:43:59;;;;;;;3.72;2.00;;;;;;;;;;10317618;28;20248;-76
2023/10/22 00:49:01;;;;;;;3.33;2.05;;;;;;;;;;10350740;28;20372;-75
2023/10/22 00:54:02;;;;;;;1.85;1.58;;;;;;;;;;10354652;28;20251;-75
2023/10/22 00:59:04;;;;;;;1.52;1.50;;;;;;;;;;10320020;28;20212;-74
2023/10/22 01:04:05;;;;;;;1.67;1.58;;;;;;;;;;10351440;28;20311;-75
2023/10/22 01:09:09;;;;;;;1.60;1.08;;;;;;;;;;10336741;28;20208;-74
2023/10/22 01:14:10;;;;;;;1.35;1.00;;;;;;;;;;10328304;28;20698;-75
2023/10/22 01:19:12;;;;;;;2.50;0.70;;;;;;;;;;10354348;28;20435;-75
2023/10/22 01:24:13;;;;;;;0.80;0.80;;;;;;;;;;10321153;28;20223;-76
2023/10/22 01:29:14;;;;;;;1.85;0.70;;;;;;;;;;10339372;28;20594;-75
2023/10/22 01:34:15;;;;;;;0.70;0.70;;;;;;;;;;10316131;28;20242;-74
2023/10/22 01:39:17;;;;;;;1.00;0.65;;;;;;;;;;10318874;28;20220;-75
2023/10/22 01:44:18;;;;;;;0.82;0.77;;;;;;;;;;10350215;28;20702;-75
2023/10/22 01:49:19;;;;;;;0.80;0.80;;;;;;;;;;10336427;28;20212;-74
2023/10/22 01:54:20;;;;;;;1.15;0.90;;;;;;;;;;10354520;28;20224;-75
2023/10/22 01:59:21;;;;;;;2.90;0.90;;;;;;;;;;10348214;28;20319;-76
2023/10/22 02:04:23;;;;;;;0.90;0.90;;;;;;;;;;10333168;28;20231;-75
2023/10/22 02:09:24;;;;;;;0.88;0.88;;;;;;;;;;10334321;28;20266;-74
2023/10/22 02:14:25;;;;;;;0.63;0.63;;;;;;;;;;10336307;28;20315;-75
2023/10/22 02:19:26;;;;;;;1.17;1.08;;;;;;;;;;10317875;28;20338;-75
2023/10/22 02:24:28;;;;;;;1.35;0.90;;;;;;;;;;10336931;28;20220;-75
2023/10/22 02:29:30;;;;;;;0.60;0.60;;;;;;;;;;10350987;28;20208;-75
2023/10/22 02:34:31;;;;;;;1.00;0.90;;;;;;;;;;10332220;28;20223;-73
2023/10/22 02:39:33;;;;;;;2.40;1.00;;;;;;;;;;10347216;28;20231;-74
2023/10/22 02:44:34;;;;;;;1.23;0.95;;;;;;;;;;10337234;28;20211;-74
2023/10/22 02:49:35;;;;;;;0.90;0.90;;;;;;;;;;10343613;28;20212;-74
2023/10/22 02:54:36;;;;;;;1.25;1.25;;;;;;;;;;10350582;28;20208;-75
2023/10/22 02:59:37;;;;;;;5.18;1.13;;;;;;;;;;10335497;28;20689;-75
2023/10/22 03:04:38;;;;;;;3.03;1.00;;;;;;;;;;10314736;28;20239;-75
2023/10/22 03:09:39;;;;;;;1.45;1.38;;;;;;;;;;10349584;28;20798;-74
2023/10/22 03:14:40;;;;;;;1.75;1.00;;;;;;;;;;10332075;28;20212;-74
2023/10/22 03:19:42;;;;;;;1.65;1.00;;;;;;;;;;10334350;28;20203;-75
2023/10/22 03:24:43;;;;;;;1.05;1.05;;;;;;;;;;10316436;28;20285;-75
2023/10/22 03:29:45;;;;;;;0.90;0.90;;;;;;;;;;10349720;28;20219;-74
2023/10/22 03:34:46;;;;;;;2.38;0.95;;;;;;;;;;10347830;28;20204;-75
2023/10/22 03:39:47;;;;;;;0.70;0.68;;;;;;;;;;10350304;28;20211;-74
2023/10/22 03:44:48;;;;;;;1.55;0.93;;;;;;;;;;10322543;28;20216;-74
2023/10/22 03:49:51;;;;;;;2.38;0.52;;;;;;;;;;10324707;28;20242;-75
2023/10/22 03:54:52;;;;;;;1.17;0.63;;;;;;;;;;10353951;28;20224;-75
2023/10/22 03:59:53;;;;;;;0.68;0.68;;;;;;;;;;10340095;28;20204;-74
2023/10/22 04:04:54;;;;;;;1.70;0.90;;;;;;;;;;10339600;28;20232;-75
2023/10/22 04:09:55;;;;;;;0.52;0.52;;;;;;;;;;10325887;28;20220;-75
2023/10/22 04:14:56;;;;;;;0.60;0.60;;;;;;;;;;10357851;28;20725;-74
2023/10/22 04:19:57;;;;;;;1.85;0.60;;;;;;;;;;10352966;28;20214;-74
2023/10/22 04:24:58;;;;;;;0.50;0.50;;;;;;;;;;10324426;28;20222;-74
2023/10/22 04:30:00;;;;;;;0.60;0.60;;;;;;;;;;10356425;28;20212;-74
2023/10/22 04:35:01;;;;;;;0.75;0.75;;;;;;;;;;10353430;28;20633;-74
2023/10/22 04:40:02;;;;;;;0.70;0.70;;;;;;;;;;10339261;28;21054;-74
2023/10/22 04:45:03;;;;;;;0.77;0.77;;;;;;;;;;10363819;28;20835;-74
2023/10/22 04:50:04;;;;;;;1.85;0.80;;;;;;;;;;10359114;28;20208;-74
2023/10/22 04:55:06;;;;;;;1.27;1.20;;;;;;;;;;10353920;28;20285;-74
2023/10/22 05:00:08;;;;;;;0.60;0.60;;;;;;;;;;10357319;28;20180;-75
2023/10/22 05:05:09;;;;;;;0.60;0.60;;;;;;;;;;10336954;28;20239;-73
2023/10/22 05:10:10;;;;;;;2.17;0.73;;;;;;;;;;10339572;28;20223;-73
2023/10/22 05:15:11;;;;;;;1.23;0.73;;;;;;;;;;10323923;28;20728;-76
2023/10/22 05:20:12;;;;;;;0.63;0.63;;;;;;;;;;10341232;28;20173;-77
2023/10/22 05:25:14;;;;;;;2.35;0.52;;;;;;;;;;10352644;28;20670;-77
2023/10/22 05:30:15;;;;;;;4.47;0.63;;;;;;;;;;10355454;28;20219;-76
2023/10/22 05:35:16;;;;;;;1.10;0.80;;;;;;;;;;10352036;28;20215;-76
2023/10/22 05:40:17;;;;;;;0.40;0.40;;;;;;;;;;10357739;28;20630;-77
2023/10/22 05:45:18;;;;;;;5.57;0.73;;;;;;;;;;10353740;28;20856;-77
2023/10/22 05:50:19;;;;;;;0.73;0.50;;;;;;;;;;10357733;28;20686;-76
2023/10/22 05:55:20;;;;;;;0.35;0.35;;;;;;;;;;10354298;28;20212;-76
2023/10/22 06:00:22;;;;;;;0.60;0.40;;;;;;;;;;10357610;28;20220;-77
2023/10/22 06:05:23;;;;;;;0.90;0.40;;;;;;;;;;10336661;28;20232;-77
2023/10/22 06:10:27;;;;;;;0.40;0.40;;;;;;;;;;10356893;28;20223;-76
2023/10/22 06:15:28;;;;;;;1.27;0.40;;;;;;;;;;10338516;28;20295;-76
2023/10/22 06:20:30;;;;;;;0.70;0.70;;;;;;;;;;10322056;28;20216;-75
2023/10/22 06:25:32;;;;;;;0.52;0.52;;;;;;;;;;10314333;28;20216;-77
2023/10/22 06:30:40;;;;;;;1.05;0.50;;;;;;;;;;10457621;27;20571;-77
2023/10/22 06:35:41;;;;;;;0.60;0.60;;;;;;;;;;10407197;28;20581;-74
2023/10/22 06:40:42;;;;;;;3.60;0.50;;;;;;;;;;10401453;28;20215;-75
2023/10/22 06:45:44;;;;;;;1.40;0.70;;;;;;;;;;10387101;28;20223;-76
2023/10/22 06:50:45;;;;;;;1.13;0.60;;;;;;;;;;10375508;28;20677;-75
2023/10/22 06:55:46;;;;;;;0.50;0.50;;;;;;;;;;10373713;28;20227;-75
2023/10/22 07:00:47;;;;;;;0.73;0.60;;;;;;;;;;10378563;28;20196;-74
2023/10/22 07:05:48;;;;;;;1.40;0.47;;;;;;;;;;10377536;28;20230;-75
2023/10/22 07:10:49;;;;;;;2.33;0.60;;;;;;;;;;10414238;28;20290;-74
2023/10/22 07:15:50;;;;;;;0.82;0.45;;;;;;;;;;10416285;28;20924;-75
2023/10/22 07:20:51;;;;;;;1.20;0.80;;;;;;;;;;10416892;28;20200;-74
2023/10/22 07:25:58;;;;;;;0.45;0.40;;;;;;;;;;10422030;28;20564;-75
2023/10/22 07:30:59;;;;;;;0.77;0.40;;;;;;;;;;10402646;28;20211;-75
2023/10/22 07:36:01;;;;;;;0.63;0.30;;;;;;;;;;10416838;28;20619;-75
2023/10/22 07:41:02;;;;;;;1.13;0.30;;;;;;;;;;10391081;28;20219;-75
2023/10/22 07:46:04;;;;;;;1.13;0.30;;;;;;;;;;10371388;28;20223;-74
2023/10/22 07:51:15;;;;;;;0.73;0.65;;;;;;;;;;10382459;28;20230;-75
2023/10/22 07:56:18;;;;;;;2.15;0.30;;;;;;;;;;10382419;28;20212;-74
2023/10/22 08:01:19;;;;;;;2.10;0.88;;;;;;;;;;10384649;28;20219;-74
2023/10/22 08:06:20;;;;;;;2.35;0.35;;;;;;;;;;10380346;28;20234;-75
2023/10/22 08:11:21;;;;;;;0.40;0.40;;;;;;;;;;10380389;28;20211;-74
2023/10/22 08:16:22;;;;;;;0.50;0.30;;;;;;;;;;10363601;28;20231;-75
2023/10/22 08:21:24;;;;;;;0.77;0.40;;;;;;;;;;10379401;28;20263;-75
2023/10/22 08:26:25;;;;;;;0.40;0.40;;;;;;;;;;10366362;28;20230;-74
2023/10/22 08:31:26;;;;;;;1.05;0.40;;;;;;;;;;10360676;28;21096;-75
2023/10/22 08:36:27;;;;;;;0.60;0.35;;;;;;;;;;10385204;28;20223;-76
2023/10/22 08:41:34;;;;;;;2.08;0.30;;;;;;;;;;10384811;28;20211;-75
2023/10/22 08:46:35;;;;;;;0.45;0.30;;;;;;;;;;10387199;28;20241;-74
2023/10/22 08:51:36;;;;;;;2.47;0.40;;;;;;;;;;10372191;28;20302;-74
2023/10/22 08:56:37;;;;;;;0.45;0.20;;;;;;;;;;10346218;28;20211;-74
2023/10/22 09:01:38;;;;;;;0.50;0.50;;;;;;;;;;10331574;28;20296;-74
2023/10/22 09:06:39;;;;;;;0.40;0.20;;;;;;;;;;10321477;28;20945;-75
2023/10/22 09:11:54;;;;;;;1.55;0.43;;;;;;;;;;10345460;28;20215;-75
2023/10/22 09:16:55;;;;;;;1.20;0.30;;;;;;;;;;10342593;28;20644;-75
2023/10/22 09:21:56;;;;;;;2.38;0.20;;;;;;;;;;10344684;28;20219;-75
2023/10/22 09:26:57;;;;;;;1.45;0.35;;;;;;;;;;10345033;28;20232;-77
2023/10/22 09:31:59;;;;;;;0.60;0.30;;;;;;;;;;10362621;28;20211;-75
2023/10/22 09:37:00;;;;;;;0.60;0.30;;;;;;;;;;10381251;28;21561;-75
2023/10/22 09:42:03;;;;;;;1.58;0.30;;;;;;;;;;10353060;28;20216;-76
2023/10/22 09:47:06;;;;;;;0.90;0.40;;;;;;;;;;10344210;28;20221;-75
2023/10/22 09:52:07;;;;;;;0.75;0.20;;;;;;;;;;10358700;28;20213;-74
2023/10/22 09:57:18;;;;;;;1.70;0.28;;;;;;;;;;10354390;28;20222;-75
2023/10/22 10:02:20;;;;;;;0.88;0.20;;;;;;;;;;10375375;28;20224;-75
2023/10/22 10:07:23;;;;;;;0.52;0.20;;;;;;;;;;10378175;28;20249;-74
2023/10/22 10:12:27;;;;;;;1.48;0.13;;;;;;;;;;10383760;28;20727;-75
2023/10/22 10:17:28;;;;;;;0.20;0.20;;;;;;;;;;10365062;28;20935;-76
2023/10/22 10:22:40;;;;;;;1.20;0.20;;;;;;;;;;10379398;28;20212;-76
2023/10/22 10:27:50;;;;;;;1.20;0.20;;;;;;;;;;10381213;28;20739;-74
2023/10/22 10:32:51;;;;;;;0.25;0.20;;;;;;;;;;10374554;28;20752;-76
2023/10/22 10:38:11;;;;;;;2.67;0.28;;;;;;;;;;10375814;28;20206;-76
2023/10/22 10:43:12;;;;;;;0.70;0.20;;;;;;;;;;10377403;28;20866;-75
2023/10/22 10:48:32;;;;;;;2.63;0.32;;;;;;;;;;10376987;28;20219;-75
2023/10/22 10:53:53;;;;;;;0.55;0.20;;;;;;;;;;10347952;28;20243;-75
2023/10/22 10:58:54;;;;;;;0.70;0.70;;;;;;;;;;10338963;28;20217;-75
2023/10/22 11:04:06;;;;;;;0.70;0.20;;;;;;;;;;10337770;28;20224;-76
2023/10/22 11:09:07;;;;;;;0.85;0.30;;;;;;;;;;10332123;28;20709;-76
2023/10/22 11:14:12;;;;;;;0.50;0.10;;;;;;;;;;10375948;28;20243;-75
2023/10/22 11:19:19;;;;;;;0.20;0.20;;;;;;;;;;10364364;28;20362;-75
2023/10/22 11:24:22;;;;;;;0.10;0.10;;;;;;;;;;10342367;28;20631;-76
2023/10/22 11:29:23;;;;;;;1.25;0.13;;;;;;;;;;10341184;28;20311;-75
2023/10/22 11:34:24;;;;;;;0.22;0.22;;;;;;;;;;10343623;28;20209;-76
2023/10/22 11:39:33;;;;;;;0.20;0.20;;;;;;;;;;10345406;28;20235;-75
2023/10/22 11:44:35;;;;;;;0.52;0.17;;;;;;;;;;10345827;28;20775;-75
2023/10/22 11:49:45;;;;;;;0.10;0.10;;;;;;;;;;10343785;28;20219;-76
2023/10/22 11:54:46;;;;;;;0.20;0.20;;;;;;;;;;10340974;28;20251;-76
2023/10/22 11:59:47;;;;;;;0.50;0.20;;;;;;;;;;10337333;28;20216;-75
2023/10/22 12:04:48;;;;;;;0.20;0.20;;;;;;;;;;10344022;28;20275;-76
2023/10/22 12:09:50;;;;;;;0.10;0.10;;;;;;;;;;10334624;28;20247;-75
2023/10/22 12:14:51;;;;;;;1.65;0.20;;;;;;;;;;10335697;28;20216;-75
2023/10/22 12:19:52;;;;;;;0.75;0.30;;;;;;;;;;10329870;28;20718;-75
2023/10/22 12:24:54;;;;;;;0.10;0.10;;;;;;;;;;10339060;28;20302;-75
2023/10/22 12:29:55;;;;;;;1.88;0.20;;;;;;;;;;10320589;28;20294;-75
2023/10/22 12:34:56;;;;;;;0.20;0.20;;;;;;;;;;10336991;28;20221;-75
2023/10/22 12:39:57;;;;;;;1.27;0.20;;;;;;;;;;10338816;28;20223;-75
2023/10/22 12:44:58;;;;;;;0.88;0.30;;;;;;;;;;10350953;28;20836;-74
2023/10/22 12:49:59;;;;;;;0.50;0.20;;;;;;;;;;10337137;28;20310;-76
2023/10/22 12:55:00;;;;;;;3.55;1.73;;;;;;;;;;10370133;28;20212;-75
2023/10/22 13:00:04;;;;;;;0.75;0.40;;;;;;;;;;10344861;28;20316;-75
2023/10/22 13:05:07;;;;;;;0.20;0.20;;;;;;;;;;10376634;28;20264;-75
2023/10/22 13:10:09;;;;;;;0.20;0.20;;;;;;;;;;10365760;28;20295;-75
2023/10/22 13:15:10;;;;;;;0.20;0.20;;;;;;;;;;10335725;28;20201;-76
2023/10/22 13:20:12;;;;;;;0.60;0.28;;;;;;;;;;10338277;28;20250;-75
2023/10/22 13:25:13;;;;;;;0.15;0.15;;;;;;;;;;10342832;28;20635;-75
2023/10/22 13:30:14;;;;;;;0.10;0.10;;;;;;;;;;10336586;28;20695;-75
2023/10/22 13:35:15;;;;;;;0.98;0.30;;;;;;;;;;10319408;28;20255;-76
2023/10/22 13:40:16;;;;;;;0.10;0.10;;;;;;;;;;10339295;28;20180;-76
2023/10/22 13:45:17;;;;;;;0.20;0.20;;;;;;;;;;10339410;28;20200;-76
2023/10/22 13:50:18;;;;;;;0.20;0.20;;;;;;;;;;10329696;28;20219;-75
2023/10/22 13:55:20;;;;;;;0.17;0.17;;;;;;;;;;10336740;28;20204;-76
2023/10/22 14:00:21;;;;;;;1.35;0.10;;;;;;;;;;10337943;28;20215;-75
2023/10/22 14:05:22;;;;;;;0.13;0.13;;;;;;;;;;10340070;28;20663;-76
2023/10/22 14:10:24;;;;;;;0.10;0.10;;;;;;;;;;10322894;28;20248;-76
2023/10/22 14:15:25;;;;;;;0.40;0.20;;;;;;;;;;10339057;28;20209;-75
2023/10/22 14:20:26;;;;;;;0.15;0.15;;;;;;;;;;10338997;28;20694;-76
2023/10/22 14:25:27;;;;;;;0.43;0.10;;;;;;;;;;10342587;28;20220;-76
2023/10/22 14:30:28;;;;;;;0.25;0.25;;;;;;;;;;10340316;28;20270;-74
2023/10/22 14:35:29;;;;;;;0.20;0.10;;;;;;;;;;10343461;28;20768;-76
2023/10/22 14:40:31;;;;;;;1.30;0.10;;;;;;;;;;10339039;28;20208;-74
2023/10/22 14:45:32;;;;;;;1.30;0.85;;;;;;;;;;10339076;28;20590;-76
2023/10/22 14:50:33;;;;;;;0.80;0.80;;;;;;;;;;10342237;28;20636;-75
2023/10/22 14:55:34;;;;;;;0.38;0.38;;;;;;;;;;10335049;28;20212;-75
2023/10/22 15:00:37;;;;;;;0.43;0.43;;;;;;;;;;10344050;28;20212;-75
2023/10/22 15:05:42;;;;;;;0.60;0.60;;;;;;;;;;10350389;28;20692;-75
2023/10/22 15:10:44;;;;;;;0.40;0.40;;;;;;;;;;10347203;28;20228;-76
2023/10/22 15:15:46;;;;;;;1.25;0.13;;;;;;;;;;10340599;28;20232;-75
2023/10/22 15:20:48;;;;;;;0.10;0.10;;;;;;;;;;10342677;28;20209;-76
2023/10/22 15:25:49;;;;;;;0.13;0.10;;;;;;;;;;10331153;28;20216;-76
2023/10/22 15:30:51;;;;;;;0.17;0.10;;;;;;;;;;10341236;28;20227;-75
2023/10/22 15:35:58;;;;;;;0.40;0.40;;;;;;;;;;10343391;28;20302;-76
2023/10/22 15:41:00;;;;;;;0.40;0.40;;;;;;;;;;10332201;28;20216;-74
2023/10/22 15:46:01;;;;;;;0.88;0.40;;;;;;;;;;10342525;28;20636;-75
2023/10/22 15:51:02;;;;;;;0.20;0.20;;;;;;;;;;10343114;28;20208;-75
2023/10/22 15:56:06;;;;;;;0.70;0.70;;;;;;;;;;10323913;28;20251;-76
2023/10/22 16:01:10;;;;;;;0.35;0.30;;;;;;;;;;10338074;28;20538;-75
2023/10/22 16:06:11;;;;;;;1.88;0.40;;;;;;;;;;10344121;28;20386;-76
2023/10/22 16:11:13;;;;;;;2.63;0.70;;;;;;;;;;10323018;28;20717;-75
2023/10/22 16:16:14;;;;;;;0.40;0.40;;;;;;;;;;10344963;28;20212;-76
2023/10/22 16:21:15;;;;;;;0.40;0.40;;;;;;;;;;10342339;28;20290;-75
2023/10/22 16:26:16;;;;;;;0.50;0.40;;;;;;;;;;10339800;28;20227;-75
2023/10/22 16:31:17;;;;;;;1.75;0.20;;;;;;;;;;10339802;28;20209;-74
2023/10/22 16:36:18;;;;;;;0.20;0.20;;;;;;;;;;10339881;28;20221;-76
2023/10/22 16:41:20;;;;;;;1.52;0.17;;;;;;;;;;10322652;28;20223;-76
2023/10/22 16:46:21;;;;;;;0.60;0.50;;;;;;;;;;10346991;28;20227;-75
2023/10/22 16:51:22;;;;;;;0.70;0.70;;;;;;;;;;10342130;28;20212;-75
2023/10/22 16:56:23;;;;;;;1.20;0.60;;;;;;;;;;10337020;28;20619;-75
2023/10/22 17:01:24;;;;;;;0.38;0.38;;;;;;;;;;10337672;28;20235;-75
2023/10/22 17:06:26;;;;;;;0.73;0.40;;;;;;;;;;10340921;28;20236;-75
2023/10/22 17:11:29;;;;;;;0.45;0.45;;;;;;;;;;10342661;28;20594;-75
2023/10/22 17:16:30;;;;;;;0.40;0.40;;;;;;;;;;10336367;28;20239;-74
2023/10/22 17:21:31;;;;;;;0.55;0.30;;;;;;;;;;10324452;28;20243;-75
2023/10/22 17:26:33;;;;;;;1.40;1.30;;;;;;;;;;10335454;28;20228;-74
2023/10/22 17:31:34;;;;;;;0.30;0.30;;;;;;;;;;10336859;28;20212;-74
2023/10/22 17:36:38;;;;;;;0.40;0.40;;;;;;;;;;10335074;28;20706;-75
2023/10/22 17:41:39;;;;;;;0.40;0.40;;;;;;;;;;10350494;28;20282;-74
2023/10/22 17:46:40;;;;;;;0.30;0.30;;;;;;;;;;10336565;28;20270;-74
2023/10/22 17:51:41;;;;;;;0.20;0.20;;;;;;;;;;10316719;28;20271;-74
2023/10/22 17:56:43;;;;;;;0.28;0.28;;;;;;;;;;10320448;28;20220;-74
2023/10/22 18:01:44;;;;;;;0.30;0.30;;;;;;;;;;10336710;28;20211;-74
2023/10/22 18:06:45;;;;;;;0.30;0.20;;;;;;;;;;10339858;28;20718;-74
2023/10/22 18:11:46;;;;;;;0.30;0.30;;;;;;;;;;10338332;28;20212;-74
2023/10/22 18:16:48;;;;;;;0.20;0.20;;;;;;;;;;10335631;28;20734;-74
2023/10/22 18:21:49;;;;;;;0.28;0.20;;;;;;;;;;10341622;28;20603;-74
2023/10/22 18:26:50;;;;;;;0.90;0.10;;;;;;;;;;10333707;28;20235;-73
2023/10/22 18:31:51;;;;;;;0.22;0.22;;;;;;;;;;10333319;28;20282;-74
2023/10/22 18:36:52;;;;;;;0.30;0.30;;;;;;;;;;10340356;28;20334;-74
2023/10/22 18:41:53;;;;;;;0.30;0.30;;;;;;;;;;10337642;28;20299;-75
2023/10/22 18:46:54;;;;;;;0.30;0.30;;;;;;;;;;10336051;28;20230;-75
2023/10/22 18:51:55;;;;;;;3.78;0.20;;;;;;;;;;10323668;28;20224;-74
2023/10/22 18:56:56;;;;;;;0.20;0.20;;;;;;;;;;10334789;28;20212;-75
2023/10/22 19:01:58;;;;;;;0.20;0.20;;;;;;;;;;10333756;28;20590;-74
2023/10/22 19:06:59;;;;;;;1.35;0.20;;;;;;;;;;10320168;28;20240;-75
2023/10/22 19:12:00;;;;;;;0.20;0.20;;;;;;;;;;10338723;28;20300;-75
2023/10/22 19:17:01;;;;;;;0.20;0.20;;;;;;;;;;10337346;28;20706;-75
2023/10/22 19:22:02;;;;;;;0.20;0.20;;;;;;;;;;10334425;28;20216;-74
2023/10/22 19:27:03;;;;;;;0.30;0.30;;;;;;;;;;10340625;28;20275;-74
2023/10/22 19:32:04;;;;;;;0.45;0.20;;;;;;;;;;10322953;28;20735;-76
2023/10/22 19:37:05;;;;;;;2.20;0.30;;;;;;;;;;10348899;28;20274;-76
2023/10/22 19:42:06;;;;;;;0.73;0.73;;;;;;;;;;10345119;28;20217;-74
2023/10/22 19:47:07;;;;;;;0.55;0.50;;;;;;;;;;10346791;28;20246;-74
2023/10/22 19:52:08;;;;;;;0.35;0.30;;;;;;;;;;10323173;28;20303;-74
2023/10/22 19:57:12;;;;;;;0.25;0.25;;;;;;;;;;10344620;28;20223;-76
2023/10/22 20:02:14;;;;;;;0.30;0.30;;;;;;;;;;10342487;28;20625;-74
2023/10/22 20:07:15;;;;;;;0.32;0.32;;;;;;;;;;10341573;28;20212;-74
2023/10/22 20:12:16;;;;;;;0.30;0.30;;;;;;;;;;10348292;28;20276;-74
2023/10/22 20:17:17;;;;;;;0.20;0.20;;;;;;;;;;10347795;28;20215;-74
2023/10/22 20:22:18;;;;;;;0.30;0.30;;;;;;;;;;10344438;28;20362;-73
2023/10/22 20:27:19;;;;;;;0.40;0.40;;;;;;;;;;10339081;28;20775;-74
2023/10/22 20:32:20;;;;;;;0.43;0.43;;;;;;;;;;10324071;28;20218;-74
2023/10/22 20:37:22;;;;;;;0.50;0.50;;;;;;;;;;10341483;28;20267;-76
2023/10/22 20:42:23;;;;;;;0.60;0.60;;;;;;;;;;10341791;28;20217;-76
2023/10/22 20:47:24;;;;;;;0.60;0.60;;;;;;;;;;10341801;28;20231;-75
2023/10/22 20:52:25;;;;;;;0.60;0.60;;;;;;;;;;10359808;28;20223;-74
2023/10/22 20:57:26;;;;;;;1.75;0.50;;;;;;;;;;10381673;28;20218;-76
2023/10/22 21:02:27;;;;;;;1.48;0.60;;;;;;;;;;10380402;28;20223;-75
2023/10/22 21:07:28;;;;;;;0.60;0.60;;;;;;;;;;10367508;28;20258;-74
2023/10/22 21:12:29;;;;;;;0.50;0.50;;;;;;;;;;10378871;28;20247;-75
2023/10/22 21:17:30;;;;;;;0.40;0.40;;;;;;;;;;10369293;28;20298;-75
2023/10/22 21:22:31;;;;;;;0.40;0.40;;;;;;;;;;10362739;28;20681;-76
2023/10/22 21:27:32;;;;;;;0.40;0.40;;;;;;;;;;10364886;28;20230;-75
2023/10/22 21:32:33;;;;;;;0.30;0.30;;;;;;;;;;10359115;28;20691;-74
2023/10/22 21:37:35;;;;;;;0.43;0.43;;;;;;;;;;10377858;28;21074;-74
2023/10/22 21:42:36;;;;;;;0.30;0.30;;;;;;;;;;10360815;28;20207;-74
2023/10/22 21:47:37;;;;;;;0.65;0.65;;;;;;;;;;10385777;28;20697;-74
2023/10/22 21:52:38;;;;;;;0.43;0.43;;;;;;;;;;10381813;28;20203;-74
2023/10/22 21:57:39;;;;;;;0.50;0.50;;;;;;;;;;10380618;28;20219;-76
2023/10/22 22:02:40;;;;;;;1.33;0.80;;;;;;;;;;10377050;28;20215;-75
2023/10/22 22:07:41;;;;;;;0.80;0.80;;;;;;;;;;10384973;28;20215;-75
2023/10/22 22:12:43;;;;;;;0.90;0.70;;;;;;;;;;10363635;28;20219;-75
2023/10/22 22:17:44;;;;;;;0.80;0.80;;;;;;;;;;10346891;28;20219;-75
2023/10/22 22:22:45;;;;;;;2.80;1.25;;;;;;;;;;10353225;28;20606;-75
2023/10/22 22:27:46;;;;;;;0.70;0.70;;;;;;;;;;10338302;28;20278;-74
2023/10/22 22:32:48;;;;;;;1.85;0.98;;;;;;;;;;10365771;28;20208;-76
2023/10/22 22:37:49;;;;;;;1.05;0.95;;;;;;;;;;10338791;28;20948;-75
2023/10/22 22:42:50;;;;;;;1.00;1.00;;;;;;;;;;10338974;28;20215;-75
2023/10/22 22:47:51;;;;;;;0.98;0.98;;;;;;;;;;10346968;28;20254;-76
2023/10/22 22:52:52;;;;;;;1.00;1.00;;;;;;;;;;10344640;28;20204;-75
2023/10/22 22:57:53;;;;;;;1.40;1.40;;;;;;;;;;10343999;28;20266;-75
2023/10/22 23:02:54;;;;;;;0.90;0.90;;;;;;;;;;10369332;28;20842;-75
2023/10/22 23:07:55;;;;;;;3.20;1.15;;;;;;;;;;10337587;28;20235;-75
2023/10/22 23:12:56;;;;;;;0.82;0.82;;;;;;;;;;10343751;28;20409;-76
2023/10/22 23:17:57;;;;;;;1.40;1.30;;;;;;;;;;10350344;28;20475;-75
2023/10/22 23:22:58;;;;;;;1.00;1.00;;;;;;;;;;10345430;28;20228;-77
2023/10/22 23:27:59;;;;;;;1.67;0.75;;;;;;;;;;10374589;28;20224;-75
2023/10/22 23:33:01;;;;;;;0.80;0.80;;;;;;;;;;10368675;28;20717;-75
2023/10/22 23:38:02;;;;;;;0.90;0.90;;;;;;;;;;10329339;28;20220;-75
2023/10/22 23:43:03;;;;;;;0.60;0.60;;;;;;;;;;10337846;28;20208;-76
2023/10/22 23:48:04;;;;;;;2.20;0.90;;;;;;;;;;10343558;28;20208;-74
2023/10/22 23:53:05;;;;;;;1.08;1.08;;;;;;;;;;10347634;28;20764;-75
2023/10/22 23:58:06;;;;;;;0.80;0.80;;;;;;;;;;10366413;28;20273;-75
